createdAt,value
2022-12-23T00:00:09.318Z,3.99
2022-12-23T00:00:19.310Z,3.98
2022-12-23T00:00:29.303Z,3.99
2022-12-23T00:00:39.334Z,4.00
2022-12-23T00:00:49.332Z,3.99
2022-12-23T00:00:59.307Z,3.99
2022-12-23T00:01:09.317Z,4.02
2022-12-23T00:01:19.329Z,4.01
2022-12-23T00:01:29.435Z,4.01
2022-12-23T00:01:39.350Z,4.00
2022-12-23T00:01:49.495Z,4.01
2022-12-23T00:01:59.441Z,4.02
2022-12-23T00:02:09.436Z,4.01
2022-12-23T00:02:19.476Z,4.03
2022-12-23T00:02:29.423Z,4.04
2022-12-23T00:02:39.492Z,4.04
2022-12-23T00:02:49.552Z,4.06
2022-12-23T00:02:59.517Z,4.04
2022-12-23T00:03:09.430Z,4.05
2022-12-23T00:03:19.478Z,4.05
2022-12-23T00:03:29.510Z,4.06
2022-12-23T00:03:39.556Z,4.05
2022-12-23T00:03:49.433Z,4.07
2022-12-23T00:03:59.448Z,4.07
2022-12-23T00:04:09.404Z,4.07
2022-12-23T00:04:19.384Z,4.07
2022-12-23T00:04:29.358Z,4.08
2022-12-23T00:04:39.329Z,4.09
2022-12-23T00:04:49.325Z,4.08
2022-12-23T00:04:59.325Z,4.07
2022-12-23T00:05:09.337Z,4.07
2022-12-23T00:05:19.325Z,4.08
2022-12-23T00:05:35.747Z,4.08
2022-12-23T00:05:40.343Z,4.07
2022-12-23T00:05:49.338Z,4.07
2022-12-23T00:05:59.342Z,4.05
2022-12-23T00:06:09.324Z,4.07
2022-12-23T00:06:19.333Z,4.07
2022-12-23T00:06:29.357Z,4.07
2022-12-23T00:06:39.340Z,4.07
2022-12-23T00:06:49.346Z,4.07
2022-12-23T00:06:59.392Z,4.06
2022-12-23T00:07:09.340Z,4.05
2022-12-23T00:07:19.363Z,4.07
2022-12-23T00:07:29.348Z,4.05
2022-12-23T00:07:39.341Z,4.06
2022-12-23T00:07:49.350Z,4.06
2022-12-23T00:07:59.339Z,4.08
2022-12-23T00:08:09.357Z,4.08
2022-12-23T00:08:19.361Z,4.07
2022-12-23T00:08:29.351Z,4.07
2022-12-23T00:08:39.349Z,4.08
2022-12-23T00:08:49.343Z,4.09
2022-12-23T00:08:59.562Z,4.07
2022-12-23T00:09:09.345Z,4.08
2022-12-23T00:09:19.351Z,4.07
2022-12-23T00:09:29.374Z,4.07
2022-12-23T00:09:39.356Z,4.08
2022-12-23T00:09:49.356Z,4.06
2022-12-23T00:09:59.354Z,4.06
2022-12-23T00:10:09.360Z,4.08
2022-12-23T00:10:19.349Z,4.09
2022-12-23T00:10:29.352Z,4.08
2022-12-23T00:10:39.366Z,4.07
2022-12-23T00:10:49.380Z,4.08
2022-12-23T00:10:59.360Z,4.08
2022-12-23T00:11:09.364Z,4.07
2022-12-23T00:11:19.364Z,4.09
2022-12-23T00:11:29.418Z,4.09
2022-12-23T00:11:39.362Z,4.10
2022-12-23T00:11:49.366Z,4.07
2022-12-23T00:11:59.371Z,4.09
2022-12-23T00:12:09.372Z,4.09
2022-12-23T00:12:19.365Z,4.08
2022-12-23T00:12:29.388Z,4.10
2022-12-23T00:12:39.361Z,4.09
2022-12-23T00:12:49.398Z,4.10
2022-12-23T00:12:59.367Z,4.09
2022-12-23T00:13:09.372Z,4.11
2022-12-23T00:13:19.367Z,4.11
2022-12-23T00:13:29.376Z,4.11
2022-12-23T00:13:39.367Z,4.11
2022-12-23T00:13:49.374Z,4.11
2022-12-23T00:13:59.382Z,4.09
2022-12-23T00:14:12.187Z,4.10
2022-12-23T00:14:21.941Z,4.07
2022-12-23T00:14:29.369Z,4.07
2022-12-23T00:14:39.373Z,4.08
2022-12-23T00:14:49.398Z,4.07
2022-12-23T00:14:59.379Z,4.07
2022-12-23T00:15:09.385Z,4.08
2022-12-23T00:15:19.381Z,4.08
2022-12-23T00:15:29.374Z,4.10
2022-12-23T00:15:39.382Z,4.08
2022-12-23T00:15:49.383Z,4.08
2022-12-23T00:15:59.396Z,4.09
2022-12-23T00:16:09.405Z,4.08
2022-12-23T00:16:19.419Z,4.08
2022-12-23T00:16:29.548Z,4.08
2022-12-23T00:16:39.419Z,4.07
2022-12-23T00:16:49.525Z,4.07
2022-12-23T00:16:59.418Z,4.07
2022-12-23T00:17:22.160Z,4.05
2022-12-23T00:17:22.983Z,4.06
2022-12-23T00:17:29.383Z,4.05
2022-12-23T00:17:39.387Z,4.06
2022-12-23T00:17:49.403Z,4.08
2022-12-23T00:17:59.388Z,4.08
2022-12-23T00:18:09.388Z,4.09
2022-12-23T00:18:19.405Z,4.09
2022-12-23T00:18:29.400Z,4.08
2022-12-23T00:18:39.392Z,4.09
2022-12-23T00:18:49.438Z,4.09
2022-12-23T00:18:59.392Z,4.09
2022-12-23T00:19:09.402Z,4.09
2022-12-23T00:19:19.431Z,4.09
2022-12-23T00:19:29.393Z,4.08
2022-12-23T00:19:39.398Z,4.08
2022-12-23T00:19:49.395Z,4.09
2022-12-23T00:19:59.400Z,4.09
2022-12-23T00:20:09.399Z,4.09
2022-12-23T00:20:19.421Z,4.09
2022-12-23T00:20:29.402Z,4.08
2022-12-23T00:20:39.398Z,4.10
2022-12-23T00:20:49.396Z,4.10
2022-12-23T00:21:03.334Z,4.11
2022-12-23T00:21:10.409Z,4.09
2022-12-23T00:21:19.404Z,4.07
2022-12-23T00:21:29.400Z,4.07
2022-12-23T00:21:39.408Z,4.07
2022-12-23T00:21:49.414Z,4.08
2022-12-23T00:21:59.408Z,4.08
2022-12-23T00:22:09.407Z,4.07
2022-12-23T00:22:19.432Z,4.08
2022-12-23T00:22:29.407Z,4.08
2022-12-23T00:22:39.416Z,4.09
2022-12-23T00:22:49.408Z,4.10
2022-12-23T00:22:59.408Z,4.10
2022-12-23T00:23:09.416Z,4.08
2022-12-23T00:23:19.409Z,4.09
2022-12-23T00:23:29.407Z,4.08
2022-12-23T00:23:39.407Z,4.08
2022-12-23T00:23:49.409Z,4.09
2022-12-23T00:23:59.425Z,4.07
2022-12-23T00:24:09.448Z,4.08
2022-12-23T00:24:19.418Z,4.08
2022-12-23T00:24:29.399Z,4.08
2022-12-23T00:24:39.411Z,4.08
2022-12-23T00:24:49.420Z,4.08
2022-12-23T00:24:59.416Z,4.10
2022-12-23T00:25:09.429Z,4.08
2022-12-23T00:25:19.435Z,4.09
2022-12-23T00:25:29.403Z,4.08
2022-12-23T00:25:39.457Z,4.09
2022-12-23T00:25:49.421Z,4.08
2022-12-23T00:25:59.420Z,4.09
2022-12-23T00:26:09.446Z,4.09
2022-12-23T00:26:19.418Z,4.08
2022-12-23T00:26:29.424Z,4.10
2022-12-23T00:26:39.444Z,4.11
2022-12-23T00:26:49.442Z,4.11
2022-12-23T00:26:59.426Z,4.11
2022-12-23T00:27:09.421Z,4.12
2022-12-23T00:27:19.422Z,4.12
2022-12-23T00:27:32.958Z,4.12
2022-12-23T00:27:40.427Z,4.10
2022-12-23T00:27:49.426Z,4.11
2022-12-23T00:27:59.433Z,4.12
2022-12-23T00:28:09.424Z,4.11
2022-12-23T00:28:19.423Z,4.11
2022-12-23T00:28:29.427Z,4.11
2022-12-23T00:28:39.432Z,4.12
2022-12-23T00:28:49.430Z,4.13
2022-12-23T00:28:59.425Z,4.14
2022-12-23T00:29:09.442Z,4.14
2022-12-23T00:29:19.433Z,4.14
2022-12-23T00:29:29.431Z,4.13
2022-12-23T00:29:39.432Z,4.13
2022-12-23T00:29:49.433Z,4.13
2022-12-23T00:29:59.434Z,4.10
2022-12-23T00:30:09.453Z,4.10
2022-12-23T00:30:19.432Z,4.12
2022-12-23T00:30:29.437Z,4.13
2022-12-23T00:30:39.440Z,4.13
2022-12-23T00:30:49.422Z,4.13
2022-12-23T00:30:59.452Z,4.12
2022-12-23T00:31:09.438Z,4.12
2022-12-23T00:31:19.501Z,4.12
2022-12-23T00:31:29.495Z,4.13
2022-12-23T00:31:39.489Z,4.14
2022-12-23T00:31:49.513Z,4.13
2022-12-23T00:31:59.490Z,4.11
2022-12-23T00:32:09.515Z,4.11
2022-12-23T00:32:19.492Z,4.10
2022-12-23T00:32:29.469Z,4.11
2022-12-23T00:32:39.447Z,4.12
2022-12-23T00:32:49.460Z,4.10
2022-12-23T00:32:59.459Z,4.08
2022-12-23T00:33:09.443Z,4.08
2022-12-23T00:33:19.448Z,4.07
2022-12-23T00:33:29.495Z,4.09
2022-12-23T00:33:39.452Z,4.08
2022-12-23T00:33:49.455Z,4.09
2022-12-23T00:33:59.479Z,4.11
2022-12-23T00:34:09.446Z,4.09
2022-12-23T00:34:19.450Z,4.11
2022-12-23T00:34:29.453Z,4.11
2022-12-23T00:34:39.450Z,4.12
2022-12-23T00:34:49.461Z,4.11
2022-12-23T00:34:59.449Z,4.12
2022-12-23T00:35:09.456Z,4.12
2022-12-23T00:35:19.448Z,4.11
2022-12-23T00:35:29.447Z,4.13
2022-12-23T00:35:39.483Z,4.12
2022-12-23T00:35:49.583Z,4.15
2022-12-23T00:35:59.508Z,4.14
2022-12-23T00:36:09.497Z,4.12
2022-12-23T00:36:19.509Z,4.11
2022-12-23T00:36:29.600Z,4.10
2022-12-23T00:36:39.479Z,4.12
2022-12-23T00:36:49.475Z,4.12
2022-12-23T00:36:59.485Z,4.11
2022-12-23T00:37:09.456Z,4.11
2022-12-23T00:37:19.464Z,4.10
2022-12-23T00:37:29.460Z,4.11
2022-12-23T00:37:39.462Z,4.10
2022-12-23T00:37:49.461Z,4.12
2022-12-23T00:37:59.460Z,4.11
2022-12-23T00:38:09.488Z,4.10
2022-12-23T00:38:19.461Z,4.13
2022-12-23T00:38:29.473Z,4.14
2022-12-23T00:38:39.461Z,4.14
2022-12-23T00:38:49.471Z,4.13
2022-12-23T00:38:59.464Z,4.13
2022-12-23T00:39:09.488Z,4.14
2022-12-23T00:39:19.467Z,4.13
2022-12-23T00:39:29.496Z,4.15
2022-12-23T00:39:39.465Z,4.14
2022-12-23T00:39:54.654Z,4.11
2022-12-23T00:40:06.202Z,4.11
2022-12-23T00:40:10.470Z,4.07
2022-12-23T00:40:19.479Z,4.10
2022-12-23T00:40:29.470Z,4.11
2022-12-23T00:40:39.468Z,4.12
2022-12-23T00:40:49.496Z,4.12
2022-12-23T00:40:59.477Z,4.13
2022-12-23T00:41:09.493Z,4.14
2022-12-23T00:41:19.469Z,4.14
2022-12-23T00:41:29.478Z,4.12
2022-12-23T00:41:39.479Z,4.12
2022-12-23T00:41:49.507Z,4.13
2022-12-23T00:41:59.489Z,4.12
2022-12-23T00:42:09.477Z,4.12
2022-12-23T00:42:19.477Z,4.11
2022-12-23T00:42:29.488Z,4.12
2022-12-23T00:42:39.492Z,4.11
2022-12-23T00:42:49.490Z,4.12
2022-12-23T00:42:59.482Z,4.12
2022-12-23T00:43:09.481Z,4.12
2022-12-23T00:43:19.482Z,4.09
2022-12-23T00:43:29.484Z,4.10
2022-12-23T00:43:39.487Z,4.12
2022-12-23T00:43:49.483Z,4.11
2022-12-23T00:43:59.518Z,4.10
2022-12-23T00:44:09.480Z,4.12
2022-12-23T00:44:19.489Z,4.11
2022-12-23T00:44:29.483Z,4.13
2022-12-23T00:44:39.490Z,4.12
2022-12-23T00:44:49.529Z,4.11
2022-12-23T00:44:59.487Z,4.13
2022-12-23T00:45:09.485Z,4.12
2022-12-23T00:45:19.497Z,4.14
2022-12-23T00:45:29.599Z,4.14
2022-12-23T00:45:39.579Z,4.15
2022-12-23T00:45:49.539Z,4.14
2022-12-23T00:45:59.637Z,4.14
2022-12-23T00:46:09.574Z,4.15
2022-12-23T00:46:19.649Z,4.15
2022-12-23T00:46:29.658Z,4.16
2022-12-23T00:46:39.499Z,4.15
2022-12-23T00:46:49.510Z,4.16
2022-12-23T00:46:59.539Z,4.16
2022-12-23T00:47:09.517Z,4.17
2022-12-23T00:47:19.504Z,4.17
2022-12-23T00:47:29.509Z,4.16
2022-12-23T00:47:39.506Z,4.16
2022-12-23T00:47:49.505Z,4.17
2022-12-23T00:47:59.494Z,4.17
2022-12-23T00:48:09.505Z,4.16
2022-12-23T00:48:19.534Z,4.17
2022-12-23T00:48:29.501Z,4.17
2022-12-23T00:48:39.508Z,4.17
2022-12-23T00:48:49.506Z,4.17
2022-12-23T00:48:59.509Z,4.16
2022-12-23T00:49:09.498Z,4.15
2022-12-23T00:49:19.524Z,4.16
2022-12-23T00:49:29.506Z,4.16
2022-12-23T00:49:39.513Z,4.17
2022-12-23T00:49:49.508Z,4.17
2022-12-23T00:49:59.517Z,4.18
2022-12-23T00:50:09.508Z,4.18
2022-12-23T00:50:19.573Z,4.18
2022-12-23T00:50:29.510Z,4.19
2022-12-23T00:50:39.509Z,4.19
2022-12-23T00:50:49.509Z,4.18
2022-12-23T00:50:59.512Z,4.19
2022-12-23T00:51:09.512Z,4.19
2022-12-23T00:51:19.520Z,4.19
2022-12-23T00:51:29.520Z,4.20
2022-12-23T00:51:39.513Z,4.21
2022-12-23T00:51:49.513Z,4.22
2022-12-23T00:51:59.523Z,4.21
2022-12-23T00:52:09.520Z,4.18
2022-12-23T00:52:19.515Z,4.22
2022-12-23T00:52:29.541Z,4.21
2022-12-23T00:52:39.518Z,4.21
2022-12-23T00:52:49.522Z,4.18
2022-12-23T00:52:59.530Z,4.18
2022-12-23T00:53:09.518Z,4.18
2022-12-23T00:53:19.528Z,4.20
2022-12-23T00:53:29.524Z,4.21
2022-12-23T00:53:39.546Z,4.21
2022-12-23T00:53:49.527Z,4.19
2022-12-23T00:53:59.521Z,4.21
2022-12-23T00:54:09.541Z,4.20
2022-12-23T00:54:19.525Z,4.20
2022-12-23T00:54:29.529Z,4.19
2022-12-23T00:54:39.529Z,4.17
2022-12-23T00:54:49.541Z,4.20
2022-12-23T00:54:59.545Z,4.23
2022-12-23T00:55:09.530Z,4.21
2022-12-23T00:55:19.550Z,4.22
2022-12-23T00:55:29.533Z,4.21
2022-12-23T00:55:39.530Z,4.21
2022-12-23T00:55:49.527Z,4.23
2022-12-23T00:55:59.536Z,4.22
2022-12-23T00:56:09.537Z,4.22
2022-12-23T00:56:19.530Z,4.21
2022-12-23T00:56:29.558Z,4.21
2022-12-23T00:56:39.531Z,4.20
2022-12-23T00:56:49.530Z,4.21
2022-12-23T00:56:59.533Z,4.21
2022-12-23T00:57:09.530Z,4.20
2022-12-23T00:57:19.534Z,4.20
2022-12-23T00:57:29.546Z,4.19
2022-12-23T00:57:39.532Z,4.20
2022-12-23T00:57:49.545Z,4.20
2022-12-23T00:57:59.535Z,4.20
2022-12-23T00:58:09.538Z,4.22
2022-12-23T00:58:19.549Z,4.20
2022-12-23T00:58:29.555Z,4.22
2022-12-23T00:58:39.557Z,4.20
2022-12-23T00:58:49.540Z,4.22
2022-12-23T00:58:59.548Z,4.21
2022-12-23T00:59:09.543Z,4.22
2022-12-23T00:59:19.549Z,4.23
2022-12-23T00:59:29.588Z,4.23
2022-12-23T00:59:39.543Z,4.24
2022-12-23T00:59:49.549Z,4.23
2022-12-23T00:59:59.545Z,4.23
2022-12-23T01:00:09.562Z,4.22
2022-12-23T01:00:19.561Z,4.23
2022-12-23T01:00:29.583Z,4.22
2022-12-23T01:00:39.562Z,4.22
2022-12-23T01:00:49.567Z,4.22
2022-12-23T01:00:59.622Z,4.22
2022-12-23T01:01:09.598Z,4.24
2022-12-23T01:01:19.634Z,4.24
2022-12-23T01:01:29.690Z,4.24
2022-12-23T01:01:39.709Z,4.25
2022-12-23T01:01:49.768Z,4.24
2022-12-23T01:01:59.777Z,4.22
2022-12-23T01:02:09.636Z,4.23
2022-12-23T01:02:19.672Z,4.23
2022-12-23T01:02:29.693Z,4.22
2022-12-23T01:02:39.708Z,4.23
2022-12-23T01:02:49.671Z,4.24
2022-12-23T01:02:59.672Z,4.23
2022-12-23T01:03:09.711Z,4.23
2022-12-23T01:03:19.637Z,4.22
2022-12-23T01:03:29.632Z,4.22
2022-12-23T01:03:39.605Z,4.22
2022-12-23T01:03:49.566Z,4.23
2022-12-23T01:03:59.587Z,4.24
2022-12-23T01:04:09.581Z,4.24
2022-12-23T01:04:19.571Z,4.24
2022-12-23T01:04:29.579Z,4.24
2022-12-23T01:04:39.582Z,4.23
2022-12-23T01:04:49.570Z,4.23
2022-12-23T01:04:59.585Z,4.23
2022-12-23T01:05:09.575Z,4.23
2022-12-23T01:05:19.576Z,4.22
2022-12-23T01:05:29.649Z,4.23
2022-12-23T01:05:39.584Z,4.24
2022-12-23T01:05:49.577Z,4.22
2022-12-23T01:05:59.575Z,4.23
2022-12-23T01:06:09.620Z,4.24
2022-12-23T01:06:19.589Z,4.23
2022-12-23T01:06:29.582Z,4.22
2022-12-23T01:06:39.606Z,4.23
2022-12-23T01:06:49.600Z,4.24
2022-12-23T01:06:59.582Z,4.25
2022-12-23T01:07:09.576Z,4.26
2022-12-23T01:07:19.578Z,4.26
2022-12-23T01:07:29.595Z,4.25
2022-12-23T01:07:39.629Z,4.26
2022-12-23T01:07:49.588Z,4.26
2022-12-23T01:07:59.602Z,4.27
2022-12-23T01:08:09.581Z,4.22
2022-12-23T01:08:19.586Z,4.25
2022-12-23T01:08:29.601Z,4.23
2022-12-23T01:08:39.595Z,4.23
2022-12-23T01:08:49.609Z,4.24
2022-12-23T01:08:59.610Z,4.26
2022-12-23T01:09:09.604Z,4.26
2022-12-23T01:09:19.605Z,4.25
2022-12-23T01:09:29.611Z,4.26
2022-12-23T01:09:39.601Z,4.24
2022-12-23T01:09:49.615Z,4.24
2022-12-23T01:09:59.603Z,4.22
2022-12-23T01:10:09.632Z,4.23
2022-12-23T01:10:19.618Z,4.25
2022-12-23T01:10:29.600Z,4.24
2022-12-23T01:10:39.600Z,4.26
2022-12-23T01:10:49.629Z,4.27
2022-12-23T01:10:59.606Z,4.27
2022-12-23T01:11:09.630Z,4.29
2022-12-23T01:11:19.600Z,4.26
2022-12-23T01:11:29.599Z,4.27
2022-12-23T01:11:39.606Z,4.29
2022-12-23T01:11:49.606Z,4.28
2022-12-23T01:11:59.615Z,4.28
2022-12-23T01:12:09.642Z,4.28
2022-12-23T01:12:19.624Z,4.29
2022-12-23T01:12:29.638Z,4.29
2022-12-23T01:12:39.607Z,4.29
2022-12-23T01:12:49.609Z,4.29
2022-12-23T01:12:59.607Z,4.29
2022-12-23T01:13:09.612Z,4.30
2022-12-23T01:13:19.610Z,4.30
2022-12-23T01:13:29.611Z,4.29
2022-12-23T01:13:39.615Z,4.27
2022-12-23T01:13:49.611Z,4.28
2022-12-23T01:13:59.620Z,4.29
2022-12-23T01:14:09.627Z,4.27
2022-12-23T01:14:19.634Z,4.27
2022-12-23T01:14:29.634Z,4.29
2022-12-23T01:14:39.615Z,4.28
2022-12-23T01:14:49.615Z,4.28
2022-12-23T01:14:59.617Z,4.27
2022-12-23T01:15:09.642Z,4.27
2022-12-23T01:15:19.625Z,4.28
2022-12-23T01:15:29.655Z,4.29
2022-12-23T01:15:39.635Z,4.29
2022-12-23T01:15:49.677Z,4.28
2022-12-23T01:15:59.622Z,4.28
2022-12-23T01:16:15.073Z,4.28
2022-12-23T01:16:20.666Z,4.24
2022-12-23T01:16:29.739Z,4.26
2022-12-23T01:16:39.690Z,4.26
2022-12-23T01:16:49.671Z,4.25
2022-12-23T01:16:59.675Z,4.25
2022-12-23T01:17:09.751Z,4.25
2022-12-23T01:17:19.734Z,4.25
2022-12-23T01:17:29.629Z,4.27
2022-12-23T01:17:39.644Z,4.26
2022-12-23T01:17:49.648Z,4.27
2022-12-23T01:17:59.625Z,4.26
2022-12-23T01:18:09.637Z,4.27
2022-12-23T01:18:19.632Z,4.26
2022-12-23T01:18:29.629Z,4.25
2022-12-23T01:18:39.625Z,4.27
2022-12-23T01:18:49.643Z,4.26
2022-12-23T01:18:59.643Z,4.27
2022-12-23T01:19:09.632Z,4.29
2022-12-23T01:19:19.641Z,4.30
2022-12-23T01:19:29.636Z,4.29
2022-12-23T01:19:39.626Z,4.28
2022-12-23T01:19:49.641Z,4.28
2022-12-23T01:19:59.646Z,4.29
2022-12-23T01:20:09.637Z,4.31
2022-12-23T01:20:19.646Z,4.29
2022-12-23T01:20:29.634Z,4.29
2022-12-23T01:20:39.629Z,4.29
2022-12-23T01:20:49.639Z,4.29
2022-12-23T01:20:59.634Z,4.29
2022-12-23T01:21:09.662Z,4.30
2022-12-23T01:21:19.640Z,4.30
2022-12-23T01:21:29.634Z,4.28
2022-12-23T01:21:39.647Z,4.30
2022-12-23T01:21:49.635Z,4.31
2022-12-23T01:21:59.636Z,4.28
2022-12-23T01:22:09.646Z,4.30
2022-12-23T01:22:19.662Z,4.30
2022-12-23T01:22:29.652Z,4.30
2022-12-23T01:22:39.644Z,4.29
2022-12-23T01:22:49.649Z,4.32
2022-12-23T01:22:59.640Z,4.30
2022-12-23T01:23:09.646Z,4.31
2022-12-23T01:23:19.664Z,4.29
2022-12-23T01:23:29.642Z,4.30
2022-12-23T01:23:39.648Z,4.32
2022-12-23T01:23:49.643Z,4.30
2022-12-23T01:23:59.644Z,4.31
2022-12-23T01:24:09.644Z,4.32
2022-12-23T01:24:19.658Z,4.34
2022-12-23T01:24:29.656Z,4.34
2022-12-23T01:24:39.648Z,4.33
2022-12-23T01:24:49.656Z,4.34
2022-12-23T01:24:59.647Z,4.34
2022-12-23T01:25:09.644Z,4.36
2022-12-23T01:25:19.671Z,4.37
2022-12-23T01:25:29.656Z,4.36
2022-12-23T01:25:39.652Z,4.35
2022-12-23T01:25:49.650Z,4.37
2022-12-23T01:26:00.408Z,4.39
2022-12-23T01:26:09.683Z,4.37
2022-12-23T01:26:19.679Z,4.35
2022-12-23T01:26:29.656Z,4.36
2022-12-23T01:26:39.684Z,4.37
2022-12-23T01:26:49.655Z,4.37
2022-12-23T01:26:59.656Z,4.36
2022-12-23T01:27:09.667Z,4.34
2022-12-23T01:27:19.680Z,4.33
2022-12-23T01:27:29.673Z,4.33
2022-12-23T01:27:39.659Z,4.34
2022-12-23T01:27:49.660Z,4.35
2022-12-23T01:27:59.661Z,4.34
2022-12-23T01:28:09.657Z,4.35
2022-12-23T01:28:19.685Z,4.36
2022-12-23T01:28:29.660Z,4.35
2022-12-23T01:28:39.680Z,4.37
2022-12-23T01:28:49.661Z,4.34
2022-12-23T01:28:59.668Z,4.36
2022-12-23T01:29:09.663Z,4.36
2022-12-23T01:29:19.666Z,4.35
2022-12-23T01:29:29.689Z,4.36
2022-12-23T01:29:39.661Z,4.36
2022-12-23T01:29:49.664Z,4.36
2022-12-23T01:29:59.663Z,4.35
2022-12-23T01:30:09.666Z,4.34
2022-12-23T01:30:19.666Z,4.34
2022-12-23T01:30:29.666Z,4.36
2022-12-23T01:30:39.668Z,4.37
2022-12-23T01:30:49.683Z,4.36
2022-12-23T01:30:59.674Z,4.37
2022-12-23T01:31:09.666Z,4.37
2022-12-23T01:31:19.772Z,4.37
2022-12-23T01:31:29.706Z,4.37
2022-12-23T01:31:39.751Z,4.37
2022-12-23T01:31:49.762Z,4.35
2022-12-23T01:31:59.855Z,4.36
2022-12-23T01:32:09.736Z,4.36
2022-12-23T01:32:19.767Z,4.36
2022-12-23T01:32:29.678Z,4.35
2022-12-23T01:32:39.673Z,4.37
2022-12-23T01:32:49.683Z,4.34
2022-12-23T01:32:59.678Z,4.35
2022-12-23T01:33:09.705Z,4.35
2022-12-23T01:33:19.678Z,4.38
2022-12-23T01:33:29.684Z,4.40
2022-12-23T01:33:39.700Z,4.37
2022-12-23T01:33:50.413Z,4.37
2022-12-23T01:33:59.679Z,4.35
2022-12-23T01:34:09.679Z,4.37
2022-12-23T01:34:19.682Z,4.37
2022-12-23T01:34:36.059Z,4.37
2022-12-23T01:34:40.722Z,4.35
2022-12-23T01:34:49.688Z,4.34
2022-12-23T01:34:59.692Z,4.34
2022-12-23T01:35:09.685Z,4.36
2022-12-23T01:35:19.693Z,4.36
2022-12-23T01:35:29.686Z,4.37
2022-12-23T01:35:39.713Z,4.37
2022-12-23T01:35:49.691Z,4.37
2022-12-23T01:35:59.699Z,4.37
2022-12-23T01:36:09.691Z,4.36
2022-12-23T01:36:19.689Z,4.38
2022-12-23T01:36:29.689Z,4.38
2022-12-23T01:36:39.715Z,4.37
2022-12-23T01:36:49.703Z,4.37
2022-12-23T01:36:59.690Z,4.36
2022-12-23T01:37:09.690Z,4.36
2022-12-23T01:37:19.697Z,4.35
2022-12-23T01:37:29.698Z,4.36
2022-12-23T01:37:39.734Z,4.36
2022-12-23T01:37:49.696Z,4.34
2022-12-23T01:37:59.691Z,4.35
2022-12-23T01:38:09.697Z,4.36
2022-12-23T01:38:19.695Z,4.36
2022-12-23T01:38:29.697Z,4.36
2022-12-23T01:38:39.730Z,4.37
2022-12-23T01:38:49.700Z,4.37
2022-12-23T01:38:59.699Z,4.38
2022-12-23T01:39:09.714Z,4.38
2022-12-23T01:39:19.709Z,4.39
2022-12-23T01:39:29.725Z,4.40
2022-12-23T01:39:39.724Z,4.40
2022-12-23T01:39:49.699Z,4.41
2022-12-23T01:39:59.702Z,4.40
2022-12-23T01:40:09.708Z,4.40
2022-12-23T01:40:19.707Z,4.39
2022-12-23T01:40:29.705Z,4.40
2022-12-23T01:40:39.711Z,4.40
2022-12-23T01:40:49.718Z,4.38
2022-12-23T01:40:59.716Z,4.39
2022-12-23T01:41:09.708Z,4.38
2022-12-23T01:41:19.710Z,4.38
2022-12-23T01:41:29.715Z,4.38
2022-12-23T01:41:39.716Z,4.38
2022-12-23T01:41:49.712Z,4.36
2022-12-23T01:41:59.759Z,4.38
2022-12-23T01:42:09.730Z,4.38
2022-12-23T01:42:19.739Z,4.37
2022-12-23T01:42:29.718Z,4.39
2022-12-23T01:42:39.715Z,4.38
2022-12-23T01:42:49.712Z,4.39
2022-12-23T01:42:59.716Z,4.38
2022-12-23T01:43:09.718Z,4.36
2022-12-23T01:43:19.760Z,4.36
2022-12-23T01:43:29.717Z,4.38
2022-12-23T01:43:39.716Z,4.38
2022-12-23T01:43:49.723Z,4.39
2022-12-23T01:43:59.723Z,4.37
2022-12-23T01:44:09.717Z,4.35
2022-12-23T01:44:19.729Z,4.37
2022-12-23T01:44:29.728Z,4.36
2022-12-23T01:44:39.732Z,4.38
2022-12-23T01:44:49.724Z,4.38
2022-12-23T01:44:59.779Z,4.38
2022-12-23T01:45:09.722Z,4.39
2022-12-23T01:45:19.762Z,4.36
2022-12-23T01:45:29.881Z,4.37
2022-12-23T01:45:39.783Z,4.36
2022-12-23T01:45:49.758Z,4.38
2022-12-23T01:45:59.846Z,4.37
2022-12-23T01:46:09.812Z,4.38
2022-12-23T01:46:19.790Z,4.38
2022-12-23T01:46:29.815Z,4.38
2022-12-23T01:46:39.723Z,4.39
2022-12-23T01:46:49.732Z,4.38
2022-12-23T01:46:59.758Z,4.39
2022-12-23T01:47:09.756Z,4.38
2022-12-23T01:47:19.733Z,4.37
2022-12-23T01:47:29.747Z,4.40
2022-12-23T01:47:39.731Z,4.39
2022-12-23T01:47:49.732Z,4.41
2022-12-23T01:47:59.747Z,4.41
2022-12-23T01:48:09.753Z,4.41
2022-12-23T01:48:19.752Z,4.42
2022-12-23T01:48:29.743Z,4.41
2022-12-23T01:48:39.735Z,4.42
2022-12-23T01:48:49.735Z,4.41
2022-12-23T01:48:59.733Z,4.40
2022-12-23T01:49:09.754Z,4.38
2022-12-23T01:49:19.752Z,4.40
2022-12-23T01:49:29.738Z,4.39
2022-12-23T01:49:39.741Z,4.39
2022-12-23T01:49:49.741Z,4.37
2022-12-23T01:49:59.743Z,4.39
2022-12-23T01:50:09.768Z,4.37
2022-12-23T01:50:19.740Z,4.38
2022-12-23T01:50:29.767Z,4.39
2022-12-23T01:50:39.743Z,4.38
2022-12-23T01:50:49.759Z,4.38
2022-12-23T01:50:59.748Z,4.40
2022-12-23T01:51:09.761Z,4.38
2022-12-23T01:51:19.759Z,4.37
2022-12-23T01:51:29.763Z,4.38
2022-12-23T01:51:39.755Z,4.37
2022-12-23T01:51:49.751Z,4.37
2022-12-23T01:51:59.757Z,4.37
2022-12-23T01:52:09.750Z,4.36
2022-12-23T01:52:19.812Z,4.36
2022-12-23T01:52:29.751Z,4.38
2022-12-23T01:52:39.752Z,4.41
2022-12-23T01:52:49.762Z,4.39
2022-12-23T01:53:06.467Z,4.41
2022-12-23T01:53:10.765Z,4.39
2022-12-23T01:53:19.762Z,4.38
2022-12-23T01:53:29.821Z,4.36
2022-12-23T01:53:39.757Z,4.38
2022-12-23T01:53:49.762Z,4.38
2022-12-23T01:53:59.757Z,4.40
2022-12-23T01:54:09.764Z,4.41
2022-12-23T01:54:19.764Z,4.42
2022-12-23T01:54:29.785Z,4.43
2022-12-23T01:54:39.770Z,4.42
2022-12-23T01:54:49.759Z,4.43
2022-12-23T01:54:59.760Z,4.41
2022-12-23T01:55:09.762Z,4.40
2022-12-23T01:55:19.764Z,4.42
2022-12-23T01:55:29.774Z,4.43
2022-12-23T01:55:39.792Z,4.42
2022-12-23T01:55:49.775Z,4.43
2022-12-23T01:55:59.770Z,4.44
2022-12-23T01:56:09.764Z,4.43
2022-12-23T01:56:19.767Z,4.44
2022-12-23T01:56:29.781Z,4.43
2022-12-23T01:56:39.786Z,4.43
2022-12-23T01:56:49.780Z,4.43
2022-12-23T01:56:59.772Z,4.42
2022-12-23T01:57:09.790Z,4.43
2022-12-23T01:57:19.777Z,4.43
2022-12-23T01:57:29.804Z,4.42
2022-12-23T01:57:39.800Z,4.42
2022-12-23T01:57:49.780Z,4.41
2022-12-23T01:57:59.788Z,4.40
2022-12-23T01:58:09.810Z,4.42
2022-12-23T01:58:19.780Z,4.42
2022-12-23T01:58:29.785Z,4.41
2022-12-23T01:58:39.788Z,4.41
2022-12-23T01:58:49.784Z,4.42
2022-12-23T01:58:59.787Z,4.41
2022-12-23T01:59:09.812Z,4.41
2022-12-23T01:59:19.781Z,4.42
2022-12-23T01:59:29.789Z,4.40
2022-12-23T01:59:39.790Z,4.40
2022-12-23T01:59:49.786Z,4.38
2022-12-23T01:59:59.787Z,4.39
2022-12-23T02:00:09.790Z,4.37
2022-12-23T02:00:19.813Z,4.38
2022-12-23T02:00:29.785Z,4.38
2022-12-23T02:00:39.787Z,4.38
2022-12-23T02:00:49.851Z,4.39
2022-12-23T02:00:59.863Z,4.39
2022-12-23T02:01:09.838Z,4.41
2022-12-23T02:01:19.946Z,4.40
2022-12-23T02:01:30.023Z,4.39
2022-12-23T02:01:39.895Z,4.39
2022-12-23T02:01:49.933Z,4.40
2022-12-23T02:01:59.995Z,4.40
2022-12-23T02:02:09.875Z,4.40
2022-12-23T02:02:19.972Z,4.42
2022-12-23T02:02:29.897Z,4.41
2022-12-23T02:02:39.926Z,4.43
2022-12-23T02:02:49.893Z,4.43
2022-12-23T02:02:59.945Z,4.42
2022-12-23T02:03:09.925Z,4.42
2022-12-23T02:03:19.899Z,4.42
2022-12-23T02:03:29.839Z,4.43
2022-12-23T02:03:39.858Z,4.42
2022-12-23T02:03:49.807Z,4.43
2022-12-23T02:03:59.820Z,4.43
2022-12-23T02:04:09.811Z,4.44
2022-12-23T02:04:19.837Z,4.43
2022-12-23T02:04:29.806Z,4.44
2022-12-23T02:04:39.816Z,4.43
2022-12-23T02:04:49.816Z,4.42
2022-12-23T02:04:59.823Z,4.43
2022-12-23T02:05:09.825Z,4.44
2022-12-23T02:05:19.813Z,4.42
2022-12-23T02:05:29.824Z,4.43
2022-12-23T02:05:39.820Z,4.44
2022-12-23T02:05:49.847Z,4.41
2022-12-23T02:05:59.827Z,4.40
2022-12-23T02:06:09.819Z,4.41
2022-12-23T02:06:19.825Z,4.40
2022-12-23T02:06:29.822Z,4.41
2022-12-23T02:06:39.811Z,4.43
2022-12-23T02:06:49.833Z,4.41
2022-12-23T02:06:59.851Z,4.42
2022-12-23T02:07:09.818Z,4.43
2022-12-23T02:07:19.823Z,4.45
2022-12-23T02:07:29.821Z,4.45
2022-12-23T02:07:39.825Z,4.45
2022-12-23T02:07:49.831Z,4.46
2022-12-23T02:07:59.826Z,4.46
2022-12-23T02:08:09.825Z,4.47
2022-12-23T02:08:19.826Z,4.45
2022-12-23T02:08:29.862Z,4.46
2022-12-23T02:08:39.945Z,4.46
2022-12-23T02:08:49.841Z,4.46
2022-12-23T02:08:59.844Z,4.46
2022-12-23T02:09:09.831Z,4.45
2022-12-23T02:09:19.875Z,4.47
2022-12-23T02:09:29.829Z,4.45
2022-12-23T02:09:39.828Z,4.47
2022-12-23T02:09:49.895Z,4.46
2022-12-23T02:09:59.831Z,4.45
2022-12-23T02:10:09.837Z,4.46
2022-12-23T02:10:19.838Z,4.47
2022-12-23T02:10:29.833Z,4.44
2022-12-23T02:10:39.848Z,4.43
2022-12-23T02:10:49.869Z,4.44
2022-12-23T02:10:59.834Z,4.45
2022-12-23T02:11:09.838Z,4.44
2022-12-23T02:11:19.839Z,4.45
2022-12-23T02:11:29.842Z,4.46
2022-12-23T02:11:39.845Z,4.43
2022-12-23T02:11:49.880Z,4.43
2022-12-23T02:11:59.843Z,4.42
2022-12-23T02:12:09.845Z,4.44
2022-12-23T02:12:19.839Z,4.43
2022-12-23T02:12:29.855Z,4.43
2022-12-23T02:12:39.864Z,4.44
2022-12-23T02:12:49.865Z,4.43
2022-12-23T02:12:59.846Z,4.41
2022-12-23T02:13:09.843Z,4.42